Time;durP1;ratioP1;P1;durP2;ratioP2;P2;SDS_P1;SDS_P2;PMS_P1;PMS_P2;Temp;Humidity;BMP_temperature;BMP_pressure;BME280_temperature;BME280_humidity;BME280_pressure;Samples;Min_cycle;Max_cycle;Signal;HPM_P1;HPM_P2
2022/12/05 00:01:42;;;;;;;41.35;18.60;;;;;;;;;;5050597;28;20503;-78
2022/12/05 00:04:11;;;;;;;44.13;20.50;;;;;;;;;;5048496;28;20138;-78
2022/12/05 00:06:41;;;;;;;40.42;18.95;;;;;;;;;;5051504;28;20132;-78
2022/12/05 00:09:10;;;;;;;42.45;18.63;;;;;;;;;;5051593;28;20060;-79
2022/12/05 00:11:38;;;;;;;41.63;18.80;;;;;;;;;;5042031;28;20049;-78
2022/12/05 00:14:07;;;;;;;40.70;18.83;;;;;;;;;;5049089;28;20104;-79
2022/12/05 00:16:35;;;;;;;40.70;18.00;;;;;;;;;;5052950;28;20532;-78
2022/12/05 00:19:05;;;;;;;38.90;18.85;;;;;;;;;;5044443;28;20082;-79
2022/12/05 00:21:33;;;;;;;41.75;18.50;;;;;;;;;;5047979;28;20205;-79
2022/12/05 00:24:01;;;;;;;41.03;19.33;;;;;;;;;;5047640;28;20081;-78
2022/12/05 00:26:29;;;;;;;40.08;19.27;;;;;;;;;;5051959;28;20054;-79
2022/12/05 00:28:57;;;;;;;46.47;19.50;;;;;;;;;;5048854;28;20045;-78
2022/12/05 00:31:25;;;;;;;44.80;18.55;;;;;;;;;;5047883;28;20054;-78
2022/12/05 00:33:54;;;;;;;35.97;18.38;;;;;;;;;;5050979;28;20053;-79
2022/12/05 00:36:25;;;;;;;43.65;18.80;;;;;;;;;;5063574;28;20060;-78
2022/12/05 00:38:55;;;;;;;49.28;19.55;;;;;;;;;;5051018;28;20049;-79
2022/12/05 00:41:23;;;;;;;43.65;19.17;;;;;;;;;;5054056;28;20096;-79
2022/12/05 00:43:51;;;;;;;39.67;18.65;;;;;;;;;;5041486;28;20054;-79
2022/12/05 00:46:23;;;;;;;38.97;18.52;;;;;;;;;;5046800;28;20053;-79
2022/12/05 00:48:52;;;;;;;38.33;17.60;;;;;;;;;;5049622;28;20100;-79
2022/12/05 00:51:27;;;;;;;39.53;18.52;;;;;;;;;;5048388;28;21784;-78
2022/12/05 00:53:57;;;;;;;44.03;18.48;;;;;;;;;;5049408;28;20053;-78
2022/12/05 00:56:25;;;;;;;42.80;18.48;;;;;;;;;;5045089;28;20053;-78
2022/12/05 00:58:56;;;;;;;40.85;18.55;;;;;;;;;;5049942;28;20053;-78
2022/12/05 01:01:26;;;;;;;39.53;18.95;;;;;;;;;;5040769;28;20953;-79
2022/12/05 01:03:55;;;;;;;38.08;17.90;;;;;;;;;;5053056;28;20115;-79
2022/12/05 01:06:23;;;;;;;38.95;18.73;;;;;;;;;;5047774;28;20057;-79
2022/12/05 01:08:50;;;;;;;39.60;19.15;;;;;;;;;;5050564;28;20056;-79
2022/12/05 01:11:18;;;;;;;44.15;19.05;;;;;;;;;;5045341;28;20077;-78
2022/12/05 01:13:46;;;;;;;36.13;17.50;;;;;;;;;;5048703;28;20136;-79
2022/12/05 01:16:17;;;;;;;41.95;18.58;;;;;;;;;;5049872;28;20073;-79
2022/12/05 01:18:44;;;;;;;44.75;17.55;;;;;;;;;;5052410;28;20629;-78
2022/12/05 01:21:12;;;;;;;42.10;18.15;;;;;;;;;;5051623;28;20042;-78
2022/12/05 01:23:39;;;;;;;41.95;18.75;;;;;;;;;;5052167;28;20419;-79
2022/12/05 01:26:08;;;;;;;48.35;19.92;;;;;;;;;;5039270;28;20109;-78
2022/12/05 01:28:36;;;;;;;45.53;18.85;;;;;;;;;;5048147;28;20042;-79
2022/12/05 01:31:07;;;;;;;43.10;18.48;;;;;;;;;;5065446;28;20085;-79
2022/12/05 01:33:35;;;;;;;39.90;17.88;;;;;;;;;;5048288;28;20144;-78
2022/12/05 01:36:03;;;;;;;45.80;18.25;;;;;;;;;;5051296;28;20088;-79
2022/12/05 01:38:30;;;;;;;39.65;18.33;;;;;;;;;;5053801;28;20056;-79
2022/12/05 01:41:03;;;;;;;36.20;18.30;;;;;;;;;;5053068;28;20055;-79
2022/12/05 01:43:30;;;;;;;38.90;18.35;;;;;;;;;;5047204;28;20081;-78
2022/12/05 01:45:58;;;;;;;43.45;18.85;;;;;;;;;;5069380;28;20930;-78
2022/12/05 01:48:29;;;;;;;39.45;17.38;;;;;;;;;;5051844;28;20054;-79
2022/12/05 01:50:57;;;;;;;42.38;19.73;;;;;;;;;;5053005;28;20049;-78
2022/12/05 01:53:26;;;;;;;42.22;19.67;;;;;;;;;;5049893;28;20152;-79
2022/12/05 01:55:54;;;;;;;38.08;17.73;;;;;;;;;;5049818;28;20060;-79
2022/12/05 01:58:22;;;;;;;41.67;18.55;;;;;;;;;;5043330;28;20053;-79
2022/12/05 02:00:49;;;;;;;43.80;19.52;;;;;;;;;;5041853;28;20049;-78
2022/12/05 02:03:18;;;;;;;39.17;18.73;;;;;;;;;;5044091;28;20134;-78
2022/12/05 02:05:50;;;;;;;40.42;18.15;;;;;;;;;;5048247;28;20141;-79
2022/12/05 02:08:18;;;;;;;38.35;17.55;;;;;;;;;;5045906;28;20053;-78
2022/12/05 02:10:48;;;;;;;38.42;17.88;;;;;;;;;;5044239;28;20054;-78
2022/12/05 02:13:16;;;;;;;36.42;17.98;;;;;;;;;;5047706;28;20046;-78
2022/12/05 02:15:47;;;;;;;45.28;18.45;;;;;;;;;;5054802;28;20045;-78
2022/12/05 02:18:28;;;;;;;39.75;17.35;;;;;;;;;;5044123;28;20050;-79
2022/12/05 02:21:14;;;;;;;43.50;19.03;;;;;;;;;;5053732;28;20080;-78
2022/12/05 02:23:52;;;;;;;42.78;19.13;;;;;;;;;;5052931;28;20720;-78
2022/12/05 02:26:19;;;;;;;35.58;16.80;;;;;;;;;;5051169;28;20057;-78
2022/12/05 02:29:02;;;;;;;39.38;18.00;;;;;;;;;;5052203;28;20541;-78
2022/12/05 02:31:52;;;;;;;37.22;17.52;;;;;;;;;;5054669;28;20527;-78
2022/12/05 02:34:24;;;;;;;40.60;17.77;;;;;;;;;;5057606;28;20060;-78
2022/12/05 02:36:58;;;;;;;35.78;16.40;;;;;;;;;;5048922;28;20100;-79
2022/12/05 02:39:25;;;;;;;41.15;17.73;;;;;;;;;;5050557;28;20045;-78
2022/12/05 02:42:03;;;;;;;42.00;18.23;;;;;;;;;;5055718;28;20073;-78
2022/12/05 02:44:41;;;;;;;36.13;17.30;;;;;;;;;;5046784;28;20133;-78
2022/12/05 02:47:08;;;;;;;36.55;17.60;;;;;;;;;;5049327;28;20088;-78
2022/12/05 02:49:37;;;;;;;42.45;18.65;;;;;;;;;;5060661;28;20026;-79
2022/12/05 02:52:06;;;;;;;35.03;16.98;;;;;;;;;;5060397;28;20081;-78
2022/12/05 02:54:36;;;;;;;37.88;17.15;;;;;;;;;;5055593;28;20050;-79
2022/12/05 02:57:04;;;;;;;37.22;16.35;;;;;;;;;;5066387;28;20117;-78
2022/12/05 02:59:31;;;;;;;40.05;17.20;;;;;;;;;;5054528;28;20038;-79
2022/12/05 03:01:59;;;;;;;34.65;16.80;;;;;;;;;;5054008;28;20140;-78
2022/12/05 03:04:27;;;;;;;38.30;17.92;;;;;;;;;;5056238;28;20076;-78
2022/12/05 03:07:04;;;;;;;36.72;17.30;;;;;;;;;;5052136;28;20046;-79
2022/12/05 03:09:37;;;;;;;38.95;16.55;;;;;;;;;;5058647;28;20097;-78
2022/12/05 03:12:10;;;;;;;36.60;16.65;;;;;;;;;;5047310;28;20997;-79
2022/12/05 03:14:41;;;;;;;35.25;16.55;;;;;;;;;;5049463;28;20588;-79
2022/12/05 03:17:15;;;;;;;38.10;17.52;;;;;;;;;;5054563;28;20056;-78
2022/12/05 03:19:49;;;;;;;30.42;15.43;;;;;;;;;;5061296;28;20080;-78
2022/12/05 03:22:24;;;;;;;36.25;16.58;;;;;;;;;;5050837;28;20106;-78
2022/12/05 03:24:54;;;;;;;37.08;15.68;;;;;;;;;;5048183;28;20053;-79
2022/12/05 03:27:42;;;;;;;37.88;17.38;;;;;;;;;;5052562;28;20048;-79
2022/12/05 03:30:15;;;;;;;36.40;15.77;;;;;;;;;;5050954;28;20157;-78
2022/12/05 03:32:54;;;;;;;33.47;15.95;;;;;;;;;;5050387;28;20052;-79
2022/12/05 03:35:37;;;;;;;35.42;16.15;;;;;;;;;;5042032;28;20838;-78
2022/12/05 03:38:10;;;;;;;33.85;15.68;;;;;;;;;;5049134;28;20049;-79
2022/12/05 03:40:42;;;;;;;36.20;17.00;;;;;;;;;;5047544;28;20088;-79
2022/12/05 03:43:14;;;;;;;37.67;16.60;;;;;;;;;;5048507;28;20063;-78
2022/12/05 03:45:44;;;;;;;32.00;15.80;;;;;;;;;;5049705;28;20136;-79
2022/12/05 03:48:18;;;;;;;35.50;15.55;;;;;;;;;;5046123;28;20128;-79
2022/12/05 03:50:47;;;;;;;35.13;16.23;;;;;;;;;;5051312;28;20053;-79
2022/12/05 03:53:24;;;;;;;35.88;15.88;;;;;;;;;;5042050;28;20940;-78
2022/12/05 03:56:18;;;;;;;28.80;15.02;;;;;;;;;;5046268;28;20084;-78
2022/12/05 03:58:45;;;;;;;;;;;;;;;;;;5044040;28;20050;-79
2022/12/05 04:01:15;;;;;;;29.83;14.35;;;;;;;;;;5048116;28;44539;-79
2022/12/05 04:03:46;;;;;;;31.90;15.15;;;;;;;;;;5042956;28;20057;-79
2022/12/05 04:06:18;;;;;;;28.45;14.77;;;;;;;;;;5047803;28;20121;-78
2022/12/05 04:08:49;;;;;;;32.28;14.63;;;;;;;;;;5050506;28;20061;-78
2022/12/05 04:11:20;;;;;;;33.75;16.42;;;;;;;;;;5045792;28;20053;-78
2022/12/05 04:13:50;;;;;;;29.90;14.80;;;;;;;;;;5045477;28;20064;-78
2022/12/05 04:19:19;;;;;;;38.08;16.65;;;;;;;;;;5051146;28;20053;-79
2022/12/05 04:21:49;;;;;;;29.42;14.65;;;;;;;;;;5048090;28;20038;-79
2022/12/05 04:27:06;;;;;;;28.92;14.05;;;;;;;;;;5051032;28;20060;-78
2022/12/05 04:29:37;;;;;;;31.67;15.00;;;;;;;;;;5051432;28;20045;-79
2022/12/05 04:32:11;;;;;;;29.53;14.47;;;;;;;;;;5050023;28;20088;-78
2022/12/05 04:34:39;;;;;;;31.77;15.65;;;;;;;;;;5048120;28;20054;-78
2022/12/05 04:37:10;;;;;;;32.55;14.10;;;;;;;;;;5051274;28;20495;-79
2022/12/05 04:39:45;;;;;;;30.70;14.70;;;;;;;;;;5049460;28;20060;-78
2022/12/05 04:42:17;;;;;;;32.65;14.75;;;;;;;;;;5053635;28;20119;-79
2022/12/05 04:44:57;;;;;;;34.37;15.87;;;;;;;;;;5048369;28;20077;-79
2022/12/05 04:47:27;;;;;;;31.40;14.38;;;;;;;;;;5053468;28;20053;-79
2022/12/05 04:49:55;;;;;;;34.13;15.60;;;;;;;;;;5047009;28;20122;-78
2022/12/05 04:52:22;;;;;;;31.30;15.43;;;;;;;;;;5052533;28;20151;-78
2022/12/05 04:54:54;;;;;;;33.30;16.25;;;;;;;;;;5053972;28;20553;-80
2022/12/05 04:57:27;;;;;;;34.28;15.60;;;;;;;;;;5052202;28;20057;-78
2022/12/05 04:59:54;;;;;;;31.15;14.75;;;;;;;;;;5066932;28;20488;-78
2022/12/05 05:02:28;;;;;;;30.05;14.68;;;;;;;;;;5051077;28;20109;-78
2022/12/05 05:04:57;;;;;;;28.25;14.68;;;;;;;;;;5044889;28;21001;-78
2022/12/05 05:07:25;;;;;;;32.38;14.68;;;;;;;;;;5044601;28;20046;-78
2022/12/05 05:09:52;;;;;;;28.50;14.80;;;;;;;;;;5048033;28;20085;-78
2022/12/05 05:12:20;;;;;;;30.02;15.93;;;;;;;;;;5053905;28;20084;-78
2022/12/05 05:14:47;;;;;;;30.90;15.40;;;;;;;;;;5051828;28;20049;-79
2022/12/05 05:17:14;;;;;;;29.35;14.88;;;;;;;;;;5051320;28;20052;-78
2022/12/05 05:19:41;;;;;;;32.85;14.77;;;;;;;;;;5050664;28;20045;-78
2022/12/05 05:22:11;;;;;;;32.20;14.35;;;;;;;;;;5053896;28;20092;-78
2022/12/05 05:24:41;;;;;;;31.45;14.65;;;;;;;;;;5044976;28;20054;-78
2022/12/05 05:27:11;;;;;;;32.60;15.35;;;;;;;;;;5055786;28;20049;-79
2022/12/05 05:29:41;;;;;;;31.67;14.75;;;;;;;;;;5047056;28;21041;-79
2022/12/05 05:32:09;;;;;;;30.70;14.70;;;;;;;;;;5053938;28;20053;-79
2022/12/05 05:34:36;;;;;;;34.72;15.98;;;;;;;;;;5051306;28;20050;-78
2022/12/05 05:37:06;;;;;;;35.60;15.57;;;;;;;;;;5051501;28;20045;-78
2022/12/05 05:39:33;;;;;;;34.00;15.80;;;;;;;;;;5040622;28;20050;-79
2022/12/05 05:42:00;;;;;;;39.10;16.27;;;;;;;;;;5049498;28;20459;-78
2022/12/05 05:44:27;;;;;;;39.80;16.38;;;;;;;;;;5049942;28;20907;-78
2022/12/05 05:46:55;;;;;;;36.45;16.25;;;;;;;;;;5041407;28;20128;-78
2022/12/05 05:49:23;;;;;;;26.85;14.48;;;;;;;;;;5054466;28;20050;-78
2022/12/05 05:51:50;;;;;;;30.58;15.27;;;;;;;;;;5049013;28;20041;-78
2022/12/05 05:54:19;;;;;;;37.08;16.33;;;;;;;;;;5041441;28;20046;-79
2022/12/05 05:56:47;;;;;;;32.35;15.27;;;;;;;;;;5052058;28;20049;-78
2022/12/05 05:59:18;;;;;;;36.10;16.45;;;;;;;;;;5052676;28;20084;-78
2022/12/05 06:01:46;;;;;;;34.83;16.30;;;;;;;;;;5046909;28;20041;-79
2022/12/05 06:04:13;;;;;;;40.22;17.08;;;;;;;;;;5050447;28;20041;-79
2022/12/05 06:06:40;;;;;;;40.80;18.45;;;;;;;;;;5046647;28;20903;-78
2022/12/05 06:09:08;;;;;;;43.58;18.85;;;;;;;;;;5043766;28;20054;-79
2022/12/05 06:11:35;;;;;;;38.97;18.20;;;;;;;;;;5047284;28;20104;-79
2022/12/05 06:14:02;;;;;;;36.83;18.10;;;;;;;;;;5050779;28;20057;-78
2022/12/05 06:16:33;;;;;;;37.80;18.27;;;;;;;;;;5050470;28;20050;-78
2022/12/05 06:19:01;;;;;;;36.00;17.17;;;;;;;;;;5050477;28;20137;-78
2022/12/05 06:21:29;;;;;;;34.20;17.45;;;;;;;;;;5069252;28;20163;-78
2022/12/05 06:23:56;;;;;;;35.85;16.20;;;;;;;;;;5049711;28;20829;-78
2022/12/05 06:26:23;;;;;;;36.50;15.90;;;;;;;;;;5049027;28;20056;-79
2022/12/05 06:28:50;;;;;;;32.45;16.63;;;;;;;;;;5062086;28;20854;-78
2022/12/05 06:31:22;;;;;;;29.80;14.30;;;;;;;;;;5050215;28;20053;-78
2022/12/05 06:33:50;;;;;;;37.10;16.35;;;;;;;;;;5052027;28;20053;-78
2022/12/05 06:36:20;;;;;;;36.70;16.10;;;;;;;;;;5048540;28;20058;-79
2022/12/05 06:38:48;;;;;;;32.92;15.27;;;;;;;;;;5054135;28;20045;-79
2022/12/05 06:41:16;;;;;;;33.13;15.70;;;;;;;;;;5051606;28;20057;-78
2022/12/05 06:43:43;;;;;;;31.80;15.60;;;;;;;;;;5049629;28;20062;-78
2022/12/05 06:46:11;;;;;;;35.63;15.15;;;;;;;;;;5049262;28;20681;-78
2022/12/05 06:48:39;;;;;;;34.17;15.35;;;;;;;;;;5053392;28;20045;-79
2022/12/05 06:51:09;;;;;;;36.80;16.00;;;;;;;;;;5043146;28;20119;-79
2022/12/05 06:53:36;;;;;;;32.00;15.23;;;;;;;;;;5045426;28;20050;-79
2022/12/05 06:56:06;;;;;;;32.83;16.13;;;;;;;;;;5042909;28;20050;-79
2022/12/05 06:58:36;;;;;;;36.45;15.65;;;;;;;;;;5045570;28;20120;-79
2022/12/05 07:04:11;;;;;;;31.75;15.02;;;;;;;;;;5050047;28;20049;-79
2022/12/05 07:06:43;;;;;;;32.20;14.68;;;;;;;;;;5043918;28;20109;-79
2022/12/05 07:09:17;;;;;;;36.25;16.00;;;;;;;;;;5052880;28;20053;-79
2022/12/05 07:11:48;;;;;;;33.65;15.40;;;;;;;;;;5051399;28;20504;-79
2022/12/05 07:14:16;;;;;;;32.92;14.70;;;;;;;;;;5052186;28;20049;-79
2022/12/05 07:17:03;;;;;;;33.92;15.25;;;;;;;;;;5057006;28;20061;-79
2022/12/05 07:19:44;;;;;;;37.65;15.70;;;;;;;;;;5048757;28;20069;-78
2022/12/05 07:22:18;;;;;;;32.77;14.47;;;;;;;;;;5061645;27;2122947;-77
2022/12/05 07:24:45;;;;;;;32.45;15.43;;;;;;;;;;5117701;27;20044;-77
2022/12/05 07:27:13;;;;;;;30.30;14.07;;;;;;;;;;5098860;27;20047;-77
2022/12/05 07:29:41;;;;;;;32.05;14.68;;;;;;;;;;5117553;27;20060;-77
2022/12/05 07:32:08;;;;;;;35.15;15.43;;;;;;;;;;5112614;27;20059;-78
2022/12/05 07:34:37;;;;;;;34.80;15.05;;;;;;;;;;5111252;27;21027;-77
2022/12/05 07:37:05;;;;;;;37.78;15.20;;;;;;;;;;5111241;27;20567;-78
2022/12/05 07:39:32;;;;;;;31.52;14.77;;;;;;;;;;5106200;27;20048;-78
2022/12/05 07:42:00;;;;;;;34.65;15.02;;;;;;;;;;5101198;28;20080;-77
2022/12/05 07:44:28;;;;;;;34.22;15.52;;;;;;;;;;5102968;28;20076;-78
2022/12/05 07:46:55;;;;;;;32.38;14.45;;;;;;;;;;5082185;28;20228;-77
2022/12/05 07:49:23;;;;;;;37.35;15.35;;;;;;;;;;5107858;27;20056;-78
2022/12/05 07:51:53;;;;;;;35.22;15.32;;;;;;;;;;5107610;27;20110;-79
2022/12/05 07:54:21;;;;;;;35.35;15.02;;;;;;;;;;5105296;27;20056;-79
2022/12/05 07:56:48;;;;;;;42.53;16.60;;;;;;;;;;5112184;27;20052;-79
2022/12/05 07:59:16;;;;;;;36.28;16.23;;;;;;;;;;5081725;28;20060;-78
2022/12/05 08:01:45;;;;;;;39.85;16.58;;;;;;;;;;5102567;28;20060;-78
2022/12/05 08:04:12;;;;;;;36.25;16.13;;;;;;;;;;5105819;27;20771;-78
2022/12/05 08:06:42;;;;;;;39.38;16.02;;;;;;;;;;5107406;27;20131;-79
2022/12/05 08:09:10;;;;;;;38.00;17.08;;;;;;;;;;5106006;28;20103;-79
2022/12/05 08:11:40;;;;;;;39.53;16.23;;;;;;;;;;5106825;28;20059;-79
2022/12/05 08:14:07;;;;;;;31.70;14.88;;;;;;;;;;5093328;27;20052;-78
2022/12/05 08:16:35;;;;;;;40.88;16.70;;;;;;;;;;5087397;27;20044;-79
2022/12/05 08:19:06;;;;;;;33.83;15.10;;;;;;;;;;5102148;27;20518;-78
2022/12/05 08:21:33;;;;;;;33.33;15.77;;;;;;;;;;5104421;27;20900;-78
2022/12/05 08:24:10;;;;;;;34.72;15.85;;;;;;;;;;5083659;28;20048;-78
2022/12/05 08:26:38;;;;;;;33.78;14.60;;;;;;;;;;5103159;27;20040;-79
2022/12/05 08:29:10;;;;;;;40.30;15.20;;;;;;;;;;5104396;27;20052;-78
2022/12/05 08:31:42;;;;;;;34.65;14.85;;;;;;;;;;5099821;28;20490;-78
2022/12/05 08:34:11;;;;;;;30.35;13.77;;;;;;;;;;5089652;28;20053;-79
2022/12/05 08:36:41;;;;;;;31.85;15.07;;;;;;;;;;5088979;28;20048;-78
2022/12/05 08:39:14;;;;;;;34.35;13.98;;;;;;;;;;5090461;28;20514;-78
2022/12/05 08:41:44;;;;;;;32.20;14.32;;;;;;;;;;5089152;28;20495;-78
2022/12/05 08:44:15;;;;;;;35.85;14.45;;;;;;;;;;5089036;28;20145;-78
2022/12/05 08:46:43;;;;;;;35.10;14.45;;;;;;;;;;5090069;28;20049;-78
2022/12/05 08:49:11;;;;;;;34.05;14.60;;;;;;;;;;5091887;28;20176;-78
2022/12/05 08:51:39;;;;;;;29.75;14.73;;;;;;;;;;5084259;28;20063;-78
2022/12/05 08:54:07;;;;;;;30.27;14.25;;;;;;;;;;5071453;28;20048;-78
2022/12/05 08:56:35;;;;;;;29.77;14.88;;;;;;;;;;5089729;28;20045;-79
2022/12/05 08:59:02;;;;;;;34.70;15.55;;;;;;;;;;5094813;28;20059;-78
2022/12/05 09:01:32;;;;;;;33.08;14.65;;;;;;;;;;5091658;28;20913;-78
2022/12/05 09:04:01;;;;;;;28.65;13.77;;;;;;;;;;5084276;28;20131;-78
2022/12/05 09:06:29;;;;;;;31.55;14.77;;;;;;;;;;5092134;28;20102;-79
2022/12/05 09:08:58;;;;;;;29.42;13.68;;;;;;;;;;5091646;28;20503;-78
2022/12/05 09:11:27;;;;;;;26.95;13.23;;;;;;;;;;5072234;28;20063;-78
2022/12/05 09:13:56;;;;;;;27.20;12.95;;;;;;;;;;5098030;28;20059;-78
2022/12/05 09:16:28;;;;;;;34.22;14.35;;;;;;;;;;5092018;28;21387;-78
2022/12/05 09:19:03;;;;;;;29.48;13.40;;;;;;;;;;5098305;28;20447;-78
2022/12/05 09:21:32;;;;;;;31.48;13.20;;;;;;;;;;5096057;28;20063;-78
2022/12/05 09:23:59;;;;;;;28.27;13.65;;;;;;;;;;5093295;28;20044;-78
2022/12/05 09:26:27;;;;;;;24.88;13.38;;;;;;;;;;5076793;28;20056;-78
2022/12/05 09:28:54;;;;;;;26.85;12.93;;;;;;;;;;5095709;28;20051;-78
2022/12/05 09:31:23;;;;;;;28.95;14.52;;;;;;;;;;5095637;28;20147;-79
2022/12/05 09:33:51;;;;;;;30.20;14.20;;;;;;;;;;5084870;28;20057;-78
2022/12/05 09:36:20;;;;;;;28.05;13.25;;;;;;;;;;5072642;28;20498;-78
2022/12/05 09:38:47;;;;;;;23.27;12.23;;;;;;;;;;5090505;28;20061;-78
2022/12/05 09:44:40;;;;;;;22.27;12.55;;;;;;;;;;5095123;28;20059;-78
2022/12/05 09:47:28;;;;;;;22.80;11.88;;;;;;;;;;5088843;28;20059;-78
2022/12/05 09:50:14;;;;;;;24.90;11.80;;;;;;;;;;5076116;28;20132;-78
2022/12/05 09:52:53;;;;;;;19.10;11.18;;;;;;;;;;5081111;28;20888;-78
2022/12/05 09:55:21;;;;;;;21.58;12.32;;;;;;;;;;5080728;28;20052;-78
2022/12/05 09:57:53;;;;;;;22.58;12.07;;;;;;;;;;5087992;28;20056;-78
2022/12/05 10:00:20;;;;;;;20.88;11.23;;;;;;;;;;5088478;28;20745;-79
2022/12/05 10:02:54;;;;;;;21.08;11.45;;;;;;;;;;5070590;28;20075;-78
2022/12/05 10:05:53;;;;;;;26.88;12.07;;;;;;;;;;5090704;28;20164;-78
2022/12/05 10:08:24;;;;;;;20.77;10.85;;;;;;;;;;5071616;28;20041;-78
2022/12/05 10:10:59;;;;;;;22.67;10.95;;;;;;;;;;5091866;28;20045;-78
2022/12/05 10:13:30;;;;;;;24.85;11.10;;;;;;;;;;5086732;28;20159;-79
2022/12/05 10:16:03;;;;;;;20.38;11.32;;;;;;;;;;5087669;28;20048;-78
2022/12/05 10:18:44;;;;;;;22.20;11.52;;;;;;;;;;5087888;28;20086;-78
2022/12/05 10:21:11;;;;;;;21.13;11.05;;;;;;;;;;5088486;28;20055;-78
2022/12/05 10:23:55;;;;;;;21.02;10.98;;;;;;;;;;5084212;28;21362;-78
2022/12/05 10:26:27;;;;;;;20.17;10.15;;;;;;;;;;5094195;28;20055;-78
2022/12/05 10:28:57;;;;;;;20.48;10.27;;;;;;;;;;5089029;28;20143;-78
2022/12/05 10:31:27;;;;;;;19.15;10.27;;;;;;;;;;5085949;28;20135;-78
2022/12/05 10:34:02;;;;;;;17.77;10.00;;;;;;;;;;5087607;28;20687;-78
2022/12/05 10:36:30;;;;;;;16.95;10.10;;;;;;;;;;5086631;28;20052;-78
2022/12/05 10:38:58;;;;;;;18.52;10.85;;;;;;;;;;5087257;28;20411;-78
2022/12/05 10:41:27;;;;;;;16.98;10.32;;;;;;;;;;5087091;28;20076;-78
2022/12/05 10:43:56;;;;;;;17.92;9.90;;;;;;;;;;5089323;28;20491;-78
2022/12/05 10:46:23;;;;;;;17.05;9.90;;;;;;;;;;5087976;28;20048;-79
2022/12/05 10:48:53;;;;;;;18.45;10.65;;;;;;;;;;5070662;28;20132;-78
2022/12/05 10:51:23;;;;;;;20.13;10.63;;;;;;;;;;5088557;28;20056;-78
2022/12/05 10:53:54;;;;;;;17.60;10.77;;;;;;;;;;5069685;28;20481;-78
2022/12/05 10:56:40;;;;;;;19.33;10.65;;;;;;;;;;5083648;28;20049;-78
2022/12/05 10:59:11;;;;;;;18.27;10.10;;;;;;;;;;5088047;28;20823;-78
2022/12/05 11:02:05;;;;;;;17.10;10.30;;;;;;;;;;5086150;28;20048;-78
2022/12/05 11:04:42;;;;;;;18.98;10.68;;;;;;;;;;5086350;28;20049;-79
2022/12/05 11:07:21;;;;;;;17.33;9.82;;;;;;;;;;5078134;28;20053;-77
2022/12/05 11:09:48;;;;;;;19.02;9.98;;;;;;;;;;5079674;28;20107;-77
2022/12/05 11:12:20;;;;;;;16.58;10.00;;;;;;;;;;5083897;28;20482;-77
2022/12/05 11:14:53;;;;;;;18.13;9.45;;;;;;;;;;5083027;28;20645;-79
2022/12/05 11:17:24;;;;;;;17.30;8.98;;;;;;;;;;5086039;28;20049;-79
2022/12/05 11:19:54;;;;;;;14.07;8.73;;;;;;;;;;5087649;28;20048;-78
2022/12/05 11:22:29;;;;;;;13.75;7.55;;;;;;;;;;5086853;28;20135;-78
2022/12/05 11:24:56;;;;;;;12.98;6.65;;;;;;;;;;5084360;28;20657;-79
2022/12/05 11:27:31;;;;;;;10.50;6.43;;;;;;;;;;5068767;28;20142;-78
2022/12/05 11:30:04;;;;;;;8.60;5.18;;;;;;;;;;5085453;28;20055;-80
2022/12/05 11:32:33;;;;;;;7.63;4.90;;;;;;;;;;5087646;28;20048;-78
2022/12/05 11:35:13;;;;;;;7.57;4.90;;;;;;;;;;5088029;28;20051;-78
2022/12/05 11:37:54;;;;;;;8.05;4.75;;;;;;;;;;5080459;28;20045;-78
2022/12/05 11:40:24;;;;;;;8.73;4.65;;;;;;;;;;5085897;28;20048;-78
2022/12/05 11:42:56;;;;;;;10.10;3.92;;;;;;;;;;5090135;28;20060;-78
2022/12/05 11:45:31;;;;;;;9.27;4.90;;;;;;;;;;5083503;28;20102;-78
2022/12/05 11:48:16;;;;;;;8.25;4.75;;;;;;;;;;5085003;28;21703;-79
2022/12/05 11:50:43;;;;;;;7.30;4.22;;;;;;;;;;5083877;28;20056;-78
2022/12/05 11:53:23;;;;;;;7.07;4.20;;;;;;;;;;5085706;28;20133;-78
2022/12/05 11:56:03;;;;;;;7.57;4.32;;;;;;;;;;5085178;28;20102;-78
2022/12/05 11:58:30;;;;;;;8.15;4.20;;;;;;;;;;5091044;28;20067;-80
2022/12/05 12:01:17;;;;;;;9.48;4.22;;;;;;;;;;5094284;28;20053;-78
2022/12/05 12:04:03;;;;;;;7.75;4.55;;;;;;;;;;5089357;28;20033;-78
2022/12/05 12:06:33;;;;;;;7.25;4.10;;;;;;;;;;5090673;28;20040;-80
2022/12/05 12:09:17;;;;;;;7.13;4.15;;;;;;;;;;5100840;28;20055;-79
2022/12/05 12:11:48;;;;;;;9.27;5.07;;;;;;;;;;5076090;28;20049;-79
2022/12/05 12:14:25;;;;;;;6.97;4.03;;;;;;;;;;5093026;28;20541;-78
2022/12/05 12:17:15;;;;;;;8.82;4.00;;;;;;;;;;5090816;28;20057;-78
2022/12/05 12:19:53;;;;;;;8.35;4.70;;;;;;;;;;5085937;28;20110;-78
2022/12/05 12:22:27;;;;;;;7.78;4.57;;;;;;;;;;5089491;28;20063;-78
2022/12/05 12:24:54;;;;;;;;;;;;;;;;;;5095596;28;20102;-78
2022/12/05 12:27:46;;;;;;;10.55;4.57;;;;;;;;;;5090885;28;45038;-80
2022/12/05 12:30:21;;;;;;;9.20;3.75;;;;;;;;;;5094734;28;20143;-79
2022/12/05 12:32:51;;;;;;;9.07;4.18;;;;;;;;;;5094735;28;20056;-78
2022/12/05 12:35:29;;;;;;;9.50;4.05;;;;;;;;;;5074955;28;20049;-79
2022/12/05 12:38:03;;;;;;;8.10;4.05;;;;;;;;;;5092945;28;20045;-79
2022/12/05 12:41:06;;;;;;;7.47;3.55;;;;;;;;;;5094015;28;20139;-79
2022/12/05 12:43:42;;;;;;;7.70;4.07;;;;;;;;;;5021629;28;20108;-78
2022/12/05 12:46:33;;;;;;;10.10;4.65;;;;;;;;;;5021671;28;20101;-78
2022/12/05 12:49:19;;;;;;;9.35;4.55;;;;;;;;;;5025237;28;20060;-78
2022/12/05 12:51:53;;;;;;;9.52;4.78;;;;;;;;;;5023073;28;20152;-78
2022/12/05 12:54:28;;;;;;;6.85;3.95;;;;;;;;;;5021041;28;20104;-78
2022/12/05 12:57:22;;;;;;;6.78;3.75;;;;;;;;;;5023666;28;20160;-78
2022/12/05 12:59:55;;;;;;;6.07;3.63;;;;;;;;;;5025505;28;20050;-79
2022/12/05 13:02:41;;;;;;;6.82;3.17;;;;;;;;;;5030183;28;20058;-79
2022/12/05 13:05:29;;;;;;;6.75;3.10;;;;;;;;;;5032873;28;20057;-79
2022/12/05 13:08:11;;;;;;;7.20;3.53;;;;;;;;;;5011126;28;20058;-79
2022/12/05 13:10:40;;;;;;;7.05;3.10;;;;;;;;;;5036737;28;20085;-79
2022/12/05 13:13:15;;;;;;;5.38;3.00;;;;;;;;;;5031274;28;20089;-79
2022/12/05 13:15:46;;;;;;;6.00;3.13;;;;;;;;;;5022755;28;20081;-78
2022/12/05 13:18:19;;;;;;;6.18;2.70;;;;;;;;;;5069698;28;20049;-78
2022/12/05 13:20:54;;;;;;;5.47;2.80;;;;;;;;;;5099523;28;20115;-79
2022/12/05 13:23:26;;;;;;;6.10;3.00;;;;;;;;;;5089671;28;20095;-78
2022/12/05 13:25:55;;;;;;;5.72;2.42;;;;;;;;;;5076597;28;20051;-79
2022/12/05 13:28:34;;;;;;;5.43;2.88;;;;;;;;;;5095410;28;20052;-79
2022/12/05 13:31:06;;;;;;;6.25;2.90;;;;;;;;;;5094570;28;20143;-78
2022/12/05 13:33:43;;;;;;;5.00;2.85;;;;;;;;;;5086104;28;20099;-78
2022/12/05 13:44:45;;;;;;;5.80;3.03;;;;;;;;;;5097805;28;42956;-79
2022/12/05 13:47:39;;;;;;;7.28;3.38;;;;;;;;;;5087595;28;20957;-79
2022/12/05 13:50:06;;;;;;;6.13;3.90;;;;;;;;;;5048295;28;20059;-78
2022/12/05 13:52:52;;;;;;;10.32;4.13;;;;;;;;;;5076594;28;20056;-79
2022/12/05 13:55:26;;;;;;;7.70;4.28;;;;;;;;;;5092176;28;20061;-79
2022/12/05 13:58:22;;;;;;;9.70;4.50;;;;;;;;;;5083620;28;20132;-79
2022/12/05 14:00:50;;;;;;;9.10;4.10;;;;;;;;;;5085438;28;20216;-79
2022/12/05 14:03:19;;;;;;;9.20;5.70;;;;;;;;;;5088401;28;20045;-78
2022/12/05 14:05:48;;;;;;;8.48;4.35;;;;;;;;;;5078966;28;20137;-79
2022/12/05 14:08:34;;;;;;;6.72;4.00;;;;;;;;;;5098818;28;21247;-78
2022/12/05 14:11:05;;;;;;;8.55;3.85;;;;;;;;;;5095042;28;20052;-78
2022/12/05 14:13:34;;;;;;;6.25;3.65;;;;;;;;;;5094860;28;20155;-78
2022/12/05 14:16:20;;;;;;;6.93;3.50;;;;;;;;;;5080795;28;20086;-79
2022/12/05 14:19:26;;;;;;;7.07;3.63;;;;;;;;;;5068735;28;20110;-79
2022/12/05 14:22:27;;;;;;;10.20;4.03;;;;;;;;;;4994533;28;20061;-79
2022/12/05 14:25:00;;;;;;;5.07;3.22;;;;;;;;;;5005464;28;20061;-78
2022/12/05 14:27:47;;;;;;;9.60;3.80;;;;;;;;;;5016847;28;20058;-79
2022/12/05 14:30:34;;;;;;;6.70;3.58;;;;;;;;;;5015040;28;20088;-78
2022/12/05 14:33:04;;;;;;;6.93;3.38;;;;;;;;;;5014755;28;20042;-80
2022/12/05 14:35:40;;;;;;;6.15;3.20;;;;;;;;;;5012276;28;20050;-78
2022/12/05 14:38:19;;;;;;;6.32;3.25;;;;;;;;;;4998297;28;20082;-79
2022/12/05 14:40:47;;;;;;;7.18;3.50;;;;;;;;;;5020122;28;20058;-79
2022/12/05 14:43:21;;;;;;;;;;;;;;;;;;5018925;28;20053;-79
2022/12/05 14:45:54;;;;;;;6.70;3.33;;;;;;;;;;5011663;28;41357;-79
2022/12/05 14:48:33;;;;;;;7.45;3.60;;;;;;;;;;5016562;28;20128;-79
2022/12/05 14:51:00;;;;;;;10.00;3.70;;;;;;;;;;4995435;28;20150;-79
2022/12/05 14:53:41;;;;;;;7.30;4.20;;;;;;;;;;5062187;28;20056;-78
2022/12/05 14:56:15;;;;;;;7.70;3.67;;;;;;;;;;5094271;28;20051;-79
2022/12/05 14:58:51;;;;;;;6.15;3.60;;;;;;;;;;5079384;28;20045;-79
2022/12/05 15:01:22;;;;;;;7.78;4.10;;;;;;;;;;5065753;28;20755;-77
2022/12/05 15:04:11;;;;;;;7.18;3.88;;;;;;;;;;5071501;28;20053;-78
2022/12/05 15:06:46;;;;;;;9.05;4.03;;;;;;;;;;5061577;28;20052;-78
2022/12/05 15:09:34;;;;;;;6.25;3.70;;;;;;;;;;5062526;28;20601;-77
2022/12/05 15:12:06;;;;;;;7.78;3.85;;;;;;;;;;5052150;28;20130;-77
2022/12/05 15:14:42;;;;;;;8.73;3.80;;;;;;;;;;5060330;28;20136;-77